sensor_id;sensor_type;location;lat;lon;timestamp;pressure;altitude;pressure_sealevel;temperature;humidity
11345;BME280;5727;42.600;23.028;2023-03-19T00:01:34;94171.44;;;2.27;100.00
11345;BME280;5727;42.600;23.028;2023-03-19T00:04:01;94173.28;;;2.16;100.00
11345;BME280;5727;42.600;23.028;2023-03-19T00:06:28;94170.44;;;2.23;100.00
11345;BME280;5727;42.600;23.028;2023-03-19T00:08:55;94171.47;;;2.22;100.00
11345;BME280;5727;42.600;23.028;2023-03-19T00:11:22;94166.28;;;2.22;100.00
11345;BME280;5727;42.600;23.028;2023-03-19T00:13:49;94167.34;;;2.21;100.00
11345;BME280;5727;42.600;23.028;2023-03-19T00:16:15;94167.34;;;2.16;100.00
11345;BME280;5727;42.600;23.028;2023-03-19T00:18:43;94162.19;;;2.11;100.00
11345;BME280;5727;42.600;23.028;2023-03-19T00:21:10;94166.56;;;2.10;100.00
11345;BME280;5727;42.600;23.028;2023-03-19T00:23:37;94160.13;;;2.13;100.00
11345;BME280;5727;42.600;23.028;2023-03-19T00:26:04;94157.00;;;2.06;100.00
11345;BME280;5727;42.600;23.028;2023-03-19T00:28:32;94148.25;;;2.02;100.00
11345;BME280;5727;42.600;23.028;2023-03-19T00:31:06;94149.25;;;2.06;100.00
11345;BME280;5727;42.600;23.028;2023-03-19T00:33:33;94147.69;;;2.10;100.00
11345;BME280;5727;42.600;23.028;2023-03-19T00:36:01;94144.63;;;2.13;100.00
11345;BME280;5727;42.600;23.028;2023-03-19T00:38:28;94150.28;;;2.10;100.00
11345;BME280;5727;42.600;23.028;2023-03-19T00:40:54;94142.28;;;2.06;100.00
11345;BME280;5727;42.600;23.028;2023-03-19T00:43:21;94142.31;;;2.01;100.00
11345;BME280;5727;42.600;23.028;2023-03-19T00:45:48;94147.75;;;2.00;100.00
11345;BME280;5727;42.600;23.028;2023-03-19T00:48:15;94139.47;;;1.98;100.00
11345;BME280;5727;42.600;23.028;2023-03-19T00:50:42;94131.19;;;2.01;100.00
11345;BME280;5727;42.600;23.028;2023-03-19T00:53:10;94133.00;;;1.95;100.00
11345;BME280;5727;42.600;23.028;2023-03-19T00:55:36;94131.22;;;1.91;100.00
11345;BME280;5727;42.600;23.028;2023-03-19T00:58:03;94129.91;;;1.93;100.00
11345;BME280;5727;42.600;23.028;2023-03-19T01:00:31;94126.03;;;1.91;100.00
11345;BME280;5727;42.600;23.028;2023-03-19T01:02:58;94129.94;;;1.88;100.00
11345;BME280;5727;42.600;23.028;2023-03-19T01:05:25;94126.03;;;1.91;100.00
11345;BME280;5727;42.600;23.028;2023-03-19T01:07:52;94124.22;;;1.91;100.00
11345;BME280;5727;42.600;23.028;2023-03-19T01:10:21;94125.00;;;1.92;100.00
11345;BME280;5727;42.600;23.028;2023-03-19T01:12:49;94124.00;;;1.88;100.00
11345;BME280;5727;42.600;23.028;2023-03-19T01:15:16;94125.78;;;1.77;100.00
11345;BME280;5727;42.600;23.028;2023-03-19T01:17:43;94124.25;;;1.76;100.00
11345;BME280;5727;42.600;23.028;2023-03-19T01:20:10;94126.09;;;1.70;100.00
11345;BME280;5727;42.600;23.028;2023-03-19T01:22:39;94126.34;;;1.69;100.00
11345;BME280;5727;42.600;23.028;2023-03-19T01:25:08;94123.50;;;1.70;100.00
11345;BME280;5727;42.600;23.028;2023-03-19T01:27:36;94120.91;;;1.70;100.00
11345;BME280;5727;42.600;23.028;2023-03-19T01:30:04;94118.59;;;1.69;100.00
11345;BME280;5727;42.600;23.028;2023-03-19T01:32:31;94119.88;;;1.71;100.00
11345;BME280;5727;42.600;23.028;2023-03-19T01:34:58;94115.47;;;1.72;100.00
11345;BME280;5727;42.600;23.028;2023-03-19T01:37:25;94112.13;;;1.61;100.00
11345;BME280;5727;42.600;23.028;2023-03-19T01:39:52;94114.69;;;1.61;100.00
11345;BME280;5727;42.600;23.028;2023-03-19T01:42:19;94115.50;;;1.57;100.00
11345;BME280;5727;42.600;23.028;2023-03-19T01:44:47;94121.16;;;1.54;100.00
11345;BME280;5727;42.600;23.028;2023-03-19T01:47:16;94119.09;;;1.41;100.00
11345;BME280;5727;42.600;23.028;2023-03-19T01:49:46;94122.47;;;1.41;100.00
11345;BME280;5727;42.600;23.028;2023-03-19T01:52:15;94122.72;;;1.45;100.00
11345;BME280;5727;42.600;23.028;2023-03-19T01:54:42;94117.81;;;1.48;100.00
11345;BME280;5727;42.600;23.028;2023-03-19T01:57:11;94109.56;;;1.51;100.00
11345;BME280;5727;42.600;23.028;2023-03-19T01:59:40;94111.38;;;1.51;100.00
11345;BME280;5727;42.600;23.028;2023-03-19T02:02:12;94112.41;;;1.50;100.00
11345;BME280;5727;42.600;23.028;2023-03-19T02:04:43;94115.75;;;1.50;100.00
11345;BME280;5727;42.600;23.028;2023-03-19T02:07:12;94114.72;;;1.51;100.00
11345;BME280;5727;42.600;23.028;2023-03-19T02:09:40;94118.59;;;1.49;100.00
11345;BME280;5727;42.600;23.028;2023-03-19T02:12:07;94116.28;;;1.47;100.00
11345;BME280;5727;42.600;23.028;2023-03-19T02:14:35;94111.88;;;1.43;100.00
11345;BME280;5727;42.600;23.028;2023-03-19T02:17:01;94114.22;;;1.39;100.00
11345;BME280;5727;42.600;23.028;2023-03-19T02:19:38;94117.56;;;1.35;100.00
11345;BME280;5727;42.600;23.028;2023-03-19T02:22:07;94112.16;;;1.31;100.00
11345;BME280;5727;42.600;23.028;2023-03-19T02:24:40;94120.41;;;1.28;100.00
11345;BME280;5727;42.600;23.028;2023-03-19T02:27:12;94119.91;;;1.26;100.00
11345;BME280;5727;42.600;23.028;2023-03-19T02:29:38;94120.66;;;1.22;100.00
11345;BME280;5727;42.600;23.028;2023-03-19T02:32:05;94116.53;;;1.21;100.00
11345;BME280;5727;42.600;23.028;2023-03-19T02:34:35;94122.22;;;1.23;100.00
11345;BME280;5727;42.600;23.028;2023-03-19T02:37:06;94121.94;;;1.19;100.00
11345;BME280;5727;42.600;23.028;2023-03-19T02:39:39;94122.47;;;1.16;100.00
11345;BME280;5727;42.600;23.028;2023-03-19T02:42:08;94121.94;;;1.19;100.00
11345;BME280;5727;42.600;23.028;2023-03-19T02:44:37;94128.13;;;1.18;100.00
11345;BME280;5727;42.600;23.028;2023-03-19T02:47:04;94126.59;;;1.17;100.00
11345;BME280;5727;42.600;23.028;2023-03-19T02:49:30;94138.19;;;1.20;100.00
11345;BME280;5727;42.600;23.028;2023-03-19T02:51:57;94138.47;;;1.18;100.00
11345;BME280;5727;42.600;23.028;2023-03-19T02:54:24;94136.94;;;1.17;100.00
11345;BME280;5727;42.600;23.028;2023-03-19T02:56:50;94129.16;;;1.12;100.00
11345;BME280;5727;42.600;23.028;2023-03-19T02:59:17;94134.06;;;1.09;100.00
11345;BME280;5727;42.600;23.028;2023-03-19T03:01:45;94138.44;;;1.08;100.00
11345;BME280;5727;42.600;23.028;2023-03-19T03:04:12;94143.09;;;1.06;100.00
11345;BME280;5727;42.600;23.028;2023-03-19T03:06:41;94140.50;;;1.06;100.00
11345;BME280;5727;42.600;23.028;2023-03-19T03:09:08;94138.44;;;1.03;100.00
11345;BME280;5727;42.600;23.028;2023-03-19T03:11:35;94139.47;;;1.02;100.00
11345;BME280;5727;42.600;23.028;2023-03-19T03:14:02;94145.41;;;1.03;100.00
11345;BME280;5727;42.600;23.028;2023-03-19T03:16:28;94150.56;;;0.98;100.00
11345;BME280;5727;42.600;23.028;2023-03-19T03:18:57;94143.09;;;0.96;100.00
11345;BME280;5727;42.600;23.028;2023-03-19T03:21:23;94141.78;;;0.93;100.00
11345;BME280;5727;42.600;23.028;2023-03-19T03:23:50;94144.63;;;0.92;100.00
11345;BME280;5727;42.600;23.028;2023-03-19T03:26:17;94141.53;;;0.90;100.00
11345;BME280;5727;42.600;23.028;2023-03-19T03:28:45;94135.84;;;0.88;100.00
11345;BME280;5727;42.600;23.028;2023-03-19T03:31:12;94135.06;;;0.82;100.00
11345;BME280;5727;42.600;23.028;2023-03-19T03:33:39;94137.38;;;0.84;100.00
11345;BME280;5727;42.600;23.028;2023-03-19T03:36:07;94141.50;;;0.80;100.00
11345;BME280;5727;42.600;23.028;2023-03-19T03:38:34;94148.72;;;0.78;100.00
11345;BME280;5727;42.600;23.028;2023-03-19T03:41:01;94139.94;;;0.79;100.00
11345;BME280;5727;42.600;23.028;2023-03-19T03:43:28;94140.66;;;0.69;100.00
11345;BME280;5727;42.600;23.028;2023-03-19T03:45:54;94139.66;;;0.75;100.00
11345;BME280;5727;42.600;23.028;2023-03-19T03:48:22;94136.81;;;0.77;100.00
11345;BME280;5727;42.600;23.028;2023-03-19T03:50:49;94140.44;;;0.76;100.00
11345;BME280;5727;42.600;23.028;2023-03-19T03:53:17;94143.28;;;0.74;100.00
11345;BME280;5727;42.600;23.028;2023-03-19T03:55:44;94138.38;;;0.73;100.00
11345;BME280;5727;42.600;23.028;2023-03-19T03:58:10;94141.41;;;0.60;100.00
11345;BME280;5727;42.600;23.028;2023-03-19T04:00:38;94139.63;;;0.60;100.00
11345;BME280;5727;42.600;23.028;2023-03-19T04:03:05;94140.16;;;0.62;100.00
11345;BME280;5727;42.600;23.028;2023-03-19T04:05:33;94142.19;;;0.60;100.00
11345;BME280;5727;42.600;23.028;2023-03-19T04:08:00;94143.47;;;0.58;100.00
11345;BME280;5727;42.600;23.028;2023-03-19T04:10:29;94141.16;;;0.56;100.00
11345;BME280;5727;42.600;23.028;2023-03-19T04:12:56;94139.84;;;0.54;100.00
11345;BME280;5727;42.600;23.028;2023-03-19T04:15:23;94145.25;;;0.47;100.00
11345;BME280;5727;42.600;23.028;2023-03-19T04:17:50;94144.97;;;0.44;100.00
11345;BME280;5727;42.600;23.028;2023-03-19T04:20:18;94154.00;;;0.46;100.00
11345;BME280;5727;42.600;23.028;2023-03-19T04:22:47;94150.16;;;0.49;100.00
11345;BME280;5727;42.600;23.028;2023-03-19T04:25:13;94152.72;;;0.49;100.00
11345;BME280;5727;42.600;23.028;2023-03-19T04:27:42;94151.94;;;0.48;100.00
11345;BME280;5727;42.600;23.028;2023-03-19T04:30:10;94154.81;;;0.52;100.00
11345;BME280;5727;42.600;23.028;2023-03-19T04:32:37;94161.50;;;0.53;100.00
11345;BME280;5727;42.600;23.028;2023-03-19T04:35:04;94161.00;;;0.56;100.00
11345;BME280;5727;42.600;23.028;2023-03-19T04:37:31;94156.97;;;0.23;100.00
11345;BME280;5727;42.600;23.028;2023-03-19T04:39:58;94157.09;;;-0.04;100.00
11345;BME280;5727;42.600;23.028;2023-03-19T04:42:25;94151.94;;;-0.09;100.00
11345;BME280;5727;42.600;23.028;2023-03-19T04:44:53;94149.16;;;0.03;100.00
11345;BME280;5727;42.600;23.028;2023-03-19T04:47:20;94149.44;;;0.12;100.00
11345;BME280;5727;42.600;23.028;2023-03-19T04:49:46;94144.59;;;0.15;100.00
11345;BME280;5727;42.600;23.028;2023-03-19T04:52:13;94141.03;;;0.21;100.00
11345;BME280;5727;42.600;23.028;2023-03-19T04:54:40;94147.19;;;0.25;100.00
11345;BME280;5727;42.600;23.028;2023-03-19T04:57:06;94142.88;;;0.31;100.00
11345;BME280;5727;42.600;23.028;2023-03-19T04:59:33;94147.19;;;0.25;100.00
11345;BME280;5727;42.600;23.028;2023-03-19T05:02:01;94140.53;;;0.29;100.00
11345;BME280;5727;42.600;23.028;2023-03-19T05:04:28;94149.06;;;0.35;100.00
11345;BME280;5727;42.600;23.028;2023-03-19T05:06:55;94144.94;;;0.39;100.00
11345;BME280;5727;42.600;23.028;2023-03-19T05:09:22;94145.75;;;0.44;100.00
11345;BME280;5727;42.600;23.028;2023-03-19T05:11:49;94148.34;;;0.49;100.00
11345;BME280;5727;42.600;23.028;2023-03-19T05:14:16;94149.16;;;0.55;100.00
11345;BME280;5727;42.600;23.028;2023-03-19T05:16:42;94145.53;;;0.56;100.00
11345;BME280;5727;42.600;23.028;2023-03-19T05:19:10;94143.25;;;0.64;100.00
11345;BME280;5727;42.600;23.028;2023-03-19T05:21:37;94155.38;;;0.69;100.00
11345;BME280;5727;42.600;23.028;2023-03-19T05:24:05;94155.13;;;0.75;100.00
11345;BME280;5727;42.600;23.028;2023-03-19T05:26:32;94153.34;;;0.71;100.00
11345;BME280;5727;42.600;23.028;2023-03-19T05:28:58;94157.97;;;0.74;100.00
11345;BME280;5727;42.600;23.028;2023-03-19T05:31:25;94153.88;;;0.78;100.00
11345;BME280;5727;42.600;23.028;2023-03-19T05:33:52;94146.88;;;0.63;100.00
11345;BME280;5727;42.600;23.028;2023-03-19T05:36:20;94149.41;;;0.58;100.00
11345;BME280;5727;42.600;23.028;2023-03-19T05:38:47;94153.56;;;0.59;100.00
11345;BME280;5727;42.600;23.028;2023-03-19T05:41:13;94148.78;;;0.31;100.00
11345;BME280;5727;42.600;23.028;2023-03-19T05:43:40;94148.31;;;0.39;100.00
11345;BME280;5727;42.600;23.028;2023-03-19T05:46:07;94152.41;;;0.35;100.00
11345;BME280;5727;42.600;23.028;2023-03-19T05:48:34;94154.78;;;0.42;100.00
11345;BME280;5727;42.600;23.028;2023-03-19T05:51:00;94156.50;;;0.31;100.00
11345;BME280;5727;42.600;23.028;2023-03-19T05:53:28;94155.56;;;0.42;100.00
11345;BME280;5727;42.600;23.028;2023-03-19T05:55:55;94160.47;;;0.54;100.00
11345;BME280;5727;42.600;23.028;2023-03-19T05:58:22;94162.88;;;0.70;100.00
11345;BME280;5727;42.600;23.028;2023-03-19T06:00:48;94161.03;;;0.66;100.00
11345;BME280;5727;42.600;23.028;2023-03-19T06:03:16;94165.22;;;0.82;100.00
11345;BME280;5727;42.600;23.028;2023-03-19T06:05:42;94164.75;;;0.95;100.00
11345;BME280;5727;42.600;23.028;2023-03-19T06:08:09;94170.44;;;1.07;100.00
11345;BME280;5727;42.600;23.028;2023-03-19T06:10:37;94171.00;;;1.24;100.00
11345;BME280;5727;42.600;23.028;2023-03-19T06:13:04;94165.06;;;1.39;100.00
11345;BME280;5727;42.600;23.028;2023-03-19T06:15:31;94163.03;;;1.46;100.00
11345;BME280;5727;42.600;23.028;2023-03-19T06:17:57;94163.78;;;1.56;100.00
11345;BME280;5727;42.600;23.028;2023-03-19T06:20:27;94159.13;;;1.68;100.00
11345;BME280;5727;42.600;23.028;2023-03-19T06:22:54;94163.78;;;1.81;100.00
11345;BME280;5727;42.600;23.028;2023-03-19T06:25:21;94167.88;;;1.93;100.00
11345;BME280;5727;42.600;23.028;2023-03-19T06:27:49;94171.50;;;2.07;100.00
11345;BME280;5727;42.600;23.028;2023-03-19T06:30:16;94178.19;;;2.18;100.00
11345;BME280;5727;42.600;23.028;2023-03-19T06:32:43;94180.22;;;2.31;100.00
11345;BME280;5727;42.600;23.028;2023-03-19T06:35:09;94175.03;;;2.41;100.00
11345;BME280;5727;42.600;23.028;2023-03-19T06:37:36;94178.09;;;2.53;100.00
11345;BME280;5727;42.600;23.028;2023-03-19T06:40:03;94182.19;;;2.64;100.00
11345;BME280;5727;42.600;23.028;2023-03-19T06:42:31;94181.66;;;2.72;99.64
11345;BME280;5727;42.600;23.028;2023-03-19T06:44:59;94180.88;;;2.76;98.96
11345;BME280;5727;42.600;23.028;2023-03-19T06:47:26;94177.72;;;2.85;99.11
11345;BME280;5727;42.600;23.028;2023-03-19T06:49:52;94181.28;;;2.99;98.83
11345;BME280;5727;42.600;23.028;2023-03-19T06:52:19;94183.81;;;3.09;98.89
11345;BME280;5727;42.600;23.028;2023-03-19T06:54:46;94179.13;;;3.16;98.49
11345;BME280;5727;42.600;23.028;2023-03-19T06:57:13;94188.34;;;3.32;96.18
11345;BME280;5727;42.600;23.028;2023-03-19T06:59:40;94186.22;;;3.39;94.33
11345;BME280;5727;42.600;23.028;2023-03-19T07:02:10;94189.53;;;3.49;94.88
11345;BME280;5727;42.600;23.028;2023-03-19T07:04:37;94192.03;;;3.64;94.66
11345;BME280;5727;42.600;23.028;2023-03-19T07:07:03;94190.34;;;3.79;92.75
11345;BME280;5727;42.600;23.028;2023-03-19T07:09:31;94186.16;;;3.88;90.96
11345;BME280;5727;42.600;23.028;2023-03-19T07:11:58;94186.81;;;3.98;90.84
11345;BME280;5727;42.600;23.028;2023-03-19T07:14:25;94182.06;;;4.10;90.91
11345;BME280;5727;42.600;23.028;2023-03-19T07:16:51;94181.69;;;4.22;89.09
11345;BME280;5727;42.600;23.028;2023-03-19T07:19:19;94180.53;;;4.33;88.71
11345;BME280;5727;42.600;23.028;2023-03-19T07:21:47;94181.25;;;4.38;87.31
11345;BME280;5727;42.600;23.028;2023-03-19T07:24:14;94175.31;;;4.38;87.51
11345;BME280;5727;42.600;23.028;2023-03-19T07:26:40;94171.22;;;4.55;88.60
11345;BME280;5727;42.600;23.028;2023-03-19T07:29:08;94173.09;;;4.74;85.97
11345;BME280;5727;42.600;23.028;2023-03-19T07:31:35;94169.53;;;4.88;84.92
11345;BME280;5727;42.600;23.028;2023-03-19T07:34:02;94179.47;;;5.05;82.48
11345;BME280;5727;42.600;23.028;2023-03-19T07:36:30;94171.47;;;5.20;81.97
11345;BME280;5727;42.600;23.028;2023-03-19T07:38:57;94176.19;;;5.36;79.99
11345;BME280;5727;42.600;23.028;2023-03-19T07:41:24;94183.84;;;5.46;79.10
11345;BME280;5727;42.600;23.028;2023-03-19T07:43:50;94182.56;;;5.63;79.42
11345;BME280;5727;42.600;23.028;2023-03-19T07:46:17;94186.16;;;5.67;75.46
11345;BME280;5727;42.600;23.028;2023-03-19T07:48:44;94189.31;;;5.64;74.83
11345;BME280;5727;42.600;23.028;2023-03-19T07:51:10;94189.22;;;5.69;74.99
11345;BME280;5727;42.600;23.028;2023-03-19T07:53:39;94195.97;;;5.70;73.05
11345;BME280;5727;42.600;23.028;2023-03-19T07:56:06;94193.16;;;5.85;74.63
11345;BME280;5727;42.600;23.028;2023-03-19T07:58:33;94195.53;;;6.00;72.72
11345;BME280;5727;42.600;23.028;2023-03-19T08:00:59;94187.09;;;6.08;72.85
11345;BME280;5727;42.600;23.028;2023-03-19T08:03:26;94189.53;;;6.18;71.63
11345;BME280;5727;42.600;23.028;2023-03-19T08:05:53;94191.53;;;6.21;72.01
11345;BME280;5727;42.600;23.028;2023-03-19T08:08:20;94192.63;;;6.33;70.42
11345;BME280;5727;42.600;23.028;2023-03-19T08:10:48;94192.28;;;6.54;69.23
11345;BME280;5727;42.600;23.028;2023-03-19T08:13:15;94188.44;;;6.65;69.78
11345;BME280;5727;42.600;23.028;2023-03-19T08:15:42;94184.94;;;6.69;70.62
11345;BME280;5727;42.600;23.028;2023-03-19T08:18:08;94182.34;;;6.83;69.92
11345;BME280;5727;42.600;23.028;2023-03-19T08:20:35;94185.72;;;6.97;69.12
11345;BME280;5727;42.600;23.028;2023-03-19T08:23:02;94172.31;;;6.90;71.26
11345;BME280;5727;42.600;23.028;2023-03-19T08:25:29;94172.78;;;7.05;71.69
11345;BME280;5727;42.600;23.028;2023-03-19T08:27:58;94176.31;;;7.23;70.82
11345;BME280;5727;42.600;23.028;2023-03-19T08:30:25;94170.13;;;7.32;70.75
11345;BME280;5727;42.600;23.028;2023-03-19T08:32:51;94180.53;;;7.46;70.90
11345;BME280;5727;42.600;23.028;2023-03-19T08:35:18;94176.63;;;7.57;69.96
11345;BME280;5727;42.600;23.028;2023-03-19T08:37:45;94176.53;;;7.62;70.84
11345;BME280;5727;42.600;23.028;2023-03-19T08:40:12;94177.91;;;7.82;70.60
11345;BME280;5727;42.600;23.028;2023-03-19T08:42:39;94175.50;;;7.94;69.34
11345;BME280;5727;42.600;23.028;2023-03-19T08:45:10;94173.84;;;7.98;69.90
11345;BME280;5727;42.600;23.028;2023-03-19T08:47:37;94166.38;;;8.05;70.90
11345;BME280;5727;42.600;23.028;2023-03-19T08:50:05;94167.44;;;8.26;68.29
11345;BME280;5727;42.600;23.028;2023-03-19T08:52:32;94167.44;;;8.26;68.93
11345;BME280;5727;42.600;23.028;2023-03-19T08:54:59;94165.72;;;8.21;68.11
11345;BME280;5727;42.600;23.028;2023-03-19T08:57:25;94160.09;;;8.28;68.04
11345;BME280;5727;42.600;23.028;2023-03-19T08:59:52;94154.03;;;8.41;67.87
11345;BME280;5727;42.600;23.028;2023-03-19T09:02:20;94157.47;;;8.59;67.61
11345;BME280;5727;42.600;23.028;2023-03-19T09:04:47;94156.09;;;8.61;66.73
11345;BME280;5727;42.600;23.028;2023-03-19T09:07:14;94143.72;;;8.75;66.51
11345;BME280;5727;42.600;23.028;2023-03-19T09:09:41;94139.00;;;8.94;64.75
11345;BME280;5727;42.600;23.028;2023-03-19T09:12:10;94139.78;;;8.95;64.64
11345;BME280;5727;42.600;23.028;2023-03-19T09:14:37;94138.72;;;9.04;64.19
11345;BME280;5727;42.600;23.028;2023-03-19T09:17:05;94144.88;;;9.17;63.73
11345;BME280;5727;42.600;23.028;2023-03-19T09:19:33;94142.28;;;9.34;63.81
11345;BME280;5727;42.600;23.028;2023-03-19T09:22:01;94148.47;;;9.47;62.86
11345;BME280;5727;42.600;23.028;2023-03-19T09:24:28;94146.31;;;9.49;60.18
11345;BME280;5727;42.600;23.028;2023-03-19T09:26:55;94137.38;;;9.50;60.04
11345;BME280;5727;42.600;23.028;2023-03-19T09:29:21;94142.47;;;9.63;60.47
11345;BME280;5727;42.600;23.028;2023-03-19T09:31:48;94146.00;;;9.76;58.42
11345;BME280;5727;42.600;23.028;2023-03-19T09:34:15;94132.16;;;9.75;56.88
11345;BME280;5727;42.600;23.028;2023-03-19T09:36:44;94132.75;;;9.81;58.18
11345;BME280;5727;42.600;23.028;2023-03-19T09:39:11;94136.13;;;9.90;57.14
11345;BME280;5727;42.600;23.028;2023-03-19T09:41:47;94130.56;;;10.00;57.72
11345;BME280;5727;42.600;23.028;2023-03-19T09:44:20;94133.97;;;10.18;56.77
11345;BME280;5727;42.600;23.028;2023-03-19T09:46:56;94116.66;;;10.34;57.94
11345;BME280;5727;42.600;23.028;2023-03-19T09:49:27;94124.63;;;10.46;53.46
11345;BME280;5727;42.600;23.028;2023-03-19T09:51:57;94114.25;;;10.58;51.37
11345;BME280;5727;42.600;23.028;2023-03-19T09:54:30;94110.28;;;10.43;51.23
11345;BME280;5727;42.600;23.028;2023-03-19T09:56:58;94109.34;;;10.56;51.84
11345;BME280;5727;42.600;23.028;2023-03-19T09:59:26;94107.78;;;10.55;51.79
11345;BME280;5727;42.600;23.028;2023-03-19T10:02:00;94116.75;;;10.54;50.74
11345;BME280;5727;42.600;23.028;2023-03-19T10:04:41;94111.59;;;10.66;50.33
11345;BME280;5727;42.600;23.028;2023-03-19T10:07:23;94111.56;;;10.75;49.34
11345;BME280;5727;42.600;23.028;2023-03-19T10:10:03;94108.59;;;10.85;49.31
11345;BME280;5727;42.600;23.028;2023-03-19T10:12:44;94095.03;;;10.83;48.93
11345;BME280;5727;42.600;23.028;2023-03-19T10:15:18;94099.91;;;10.93;48.26
11345;BME280;5727;42.600;23.028;2023-03-19T10:17:57;94095.06;;;11.03;48.28
11345;BME280;5727;42.600;23.028;2023-03-19T10:20:32;94087.88;;;11.13;50.38
11345;BME280;5727;42.600;23.028;2023-03-19T10:23:13;94083.16;;;11.27;48.08
11345;BME280;5727;42.600;23.028;2023-03-19T10:25:46;94073.56;;;11.31;47.89
11345;BME280;5727;42.600;23.028;2023-03-19T10:28:14;94072.88;;;11.42;47.51
11345;BME280;5727;42.600;23.028;2023-03-19T10:30:48;94071.50;;;11.57;46.86
11345;BME280;5727;42.600;23.028;2023-03-19T10:33:21;94058.19;;;11.62;45.17
11345;BME280;5727;42.600;23.028;2023-03-19T10:35:56;94052.25;;;11.73;44.81
11345;BME280;5727;42.600;23.028;2023-03-19T10:38:29;94048.75;;;11.81;45.26
11345;BME280;5727;42.600;23.028;2023-03-19T10:41:10;94050.81;;;11.76;44.82
11345;BME280;5727;42.600;23.028;2023-03-19T10:43:42;94045.84;;;11.83;44.83
11345;BME280;5727;42.600;23.028;2023-03-19T10:46:12;94040.59;;;11.95;44.71
11345;BME280;5727;42.600;23.028;2023-03-19T10:48:42;94040.19;;;12.05;44.96
11345;BME280;5727;42.600;23.028;2023-03-19T10:51:13;94037.91;;;12.16;48.55
11345;BME280;5727;42.600;23.028;2023-03-19T10:53:42;94033.97;;;12.34;45.74
11345;BME280;5727;42.600;23.028;2023-03-19T10:56:17;94020.06;;;12.45;45.59
11345;BME280;5727;42.600;23.028;2023-03-19T10:58:56;94023.91;;;12.60;44.51
11345;BME280;5727;42.600;23.028;2023-03-19T11:01:27;94017.22;;;12.62;41.74
11345;BME280;5727;42.600;23.028;2023-03-19T11:03:59;93997.06;;;12.66;41.23
11345;BME280;5727;42.600;23.028;2023-03-19T11:06:30;93997.72;;;12.75;40.61
11345;BME280;5727;42.600;23.028;2023-03-19T11:09:00;93992.88;;;12.77;40.75
11345;BME280;5727;42.600;23.028;2023-03-19T11:11:33;93996.16;;;12.86;42.29
11345;BME280;5727;42.600;23.028;2023-03-19T11:14:14;93984.75;;;12.95;42.68
11345;BME280;5727;42.600;23.028;2023-03-19T11:16:48;93982.53;;;13.09;41.52
11345;BME280;5727;42.600;23.028;2023-03-19T11:19:19;93976.81;;;13.19;42.61
11345;BME280;5727;42.600;23.028;2023-03-19T11:21:59;93980.16;;;13.31;40.16
11345;BME280;5727;42.600;23.028;2023-03-19T11:24:30;93974.31;;;13.38;39.43
11345;BME280;5727;42.600;23.028;2023-03-19T11:26:57;93969.16;;;13.41;36.05
11345;BME280;5727;42.600;23.028;2023-03-19T11:29:26;93971.44;;;13.43;35.11
11345;BME280;5727;42.600;23.028;2023-03-19T11:32:02;93971.56;;;13.46;36.31
11345;BME280;5727;42.600;23.028;2023-03-19T11:34:35;93963.13;;;13.41;34.32
11345;BME280;5727;42.600;23.028;2023-03-19T11:37:10;93966.19;;;13.43;34.23
11345;BME280;5727;42.600;23.028;2023-03-19T11:39:51;93959.56;;;13.49;33.41
11345;BME280;5727;42.600;23.028;2023-03-19T11:42:38;93942.53;;;13.58;34.24
11345;BME280;5727;42.600;23.028;2023-03-19T11:45:16;93940.50;;;13.67;34.14
11345;BME280;5727;42.600;23.028;2023-03-19T11:47:51;93927.25;;;13.79;36.03
11345;BME280;5727;42.600;23.028;2023-03-19T11:50:37;93932.03;;;13.90;35.66
11345;BME280;5727;42.600;23.028;2023-03-19T11:53:19;93924.28;;;13.97;33.75
11345;BME280;5727;42.600;23.028;2023-03-19T11:55:58;93926.75;;;14.05;32.76
11345;BME280;5727;42.600;23.028;2023-03-19T11:58:46;93917.06;;;14.09;33.22
11345;BME280;5727;42.600;23.028;2023-03-19T12:01:27;93925.03;;;14.13;33.84
11345;BME280;5727;42.600;23.028;2023-03-19T12:04:14;93916.38;;;14.12;32.69
11345;BME280;5727;42.600;23.028;2023-03-19T12:06:52;93913.06;;;14.15;32.88
11345;BME280;5727;42.600;23.028;2023-03-19T12:09:29;93925.03;;;14.13;32.42
11345;BME280;5727;42.600;23.028;2023-03-19T12:12:06;93911.69;;;14.21;32.97
11345;BME280;5727;42.600;23.028;2023-03-19T12:14:49;93911.44;;;14.42;32.05
11345;BME280;5727;42.600;23.028;2023-03-19T12:20:32;93892.13;;;17.39;28.62
11345;BME280;5727;42.600;23.028;2023-03-19T12:23:05;93900.38;;;19.37;25.52
11345;BME280;5727;42.600;23.028;2023-03-19T12:25:58;93902.31;;;20.81;23.86
11345;BME280;5727;42.600;23.028;2023-03-19T12:28:32;93888.78;;;21.44;23.24
11345;BME280;5727;42.600;23.028;2023-03-19T12:34:19;93879.69;;;25.37;19.58
11345;BME280;5727;42.600;23.028;2023-03-19T12:36:52;93881.63;;;26.24;19.54
11345;BME280;5727;42.600;23.028;2023-03-19T12:39:24;93882.94;;;26.65;18.72
11345;BME280;5727;42.600;23.028;2023-03-19T12:41:53;93870.94;;;28.31;17.54
11345;BME280;5727;42.600;23.028;2023-03-19T12:44:27;93868.13;;;29.58;17.11
11345;BME280;5727;42.600;23.028;2023-03-19T12:46:57;93868.47;;;30.40;16.16
11345;BME280;5727;42.600;23.028;2023-03-19T12:49:30;93855.41;;;29.68;16.15
11345;BME280;5727;42.600;23.028;2023-03-19T12:52:05;93860.81;;;30.47;16.12
11345;BME280;5727;42.600;23.028;2023-03-19T12:54:35;93862.25;;;30.88;16.36
11345;BME280;5727;42.600;23.028;2023-03-19T12:57:08;93851.59;;;30.27;15.54
11345;BME280;5727;42.600;23.028;2023-03-19T12:59:39;93848.50;;;30.46;15.59
11345;BME280;5727;42.600;23.028;2023-03-19T13:02:17;93843.25;;;29.42;16.08
11345;BME280;5727;42.600;23.028;2023-03-19T13:04:52;93842.75;;;29.56;16.46
11345;BME280;5727;42.600;23.028;2023-03-19T13:07:24;93845.28;;;29.29;16.38
11345;BME280;5727;42.600;23.028;2023-03-19T13:09:59;93844.78;;;30.04;16.26
11345;BME280;5727;42.600;23.028;2023-03-19T13:12:31;93841.84;;;29.59;15.41
11345;BME280;5727;42.600;23.028;2023-03-19T13:15:04;93841.66;;;29.53;16.55
11345;BME280;5727;42.600;23.028;2023-03-19T13:17:38;93842.91;;;28.28;16.28
11345;BME280;5727;42.600;23.028;2023-03-19T13:20:15;93840.59;;;26.85;17.31